sensor_id;sensor_type;location;lat;lon;timestamp;P1;durP1;ratioP1;P2;durP2;ratioP2
15246;SDS011;7726;48.820;9.248;2022-10-31T00:01:49;11.05;;;7.07;;
15246;SDS011;7726;48.820;9.248;2022-10-31T00:04:16;12.82;;;7.68;;
15246;SDS011;7726;48.820;9.248;2022-10-31T00:06:45;12.82;;;8.30;;
15246;SDS011;7726;48.820;9.248;2022-10-31T00:09:12;9.45;;;7.35;;
15246;SDS011;7726;48.820;9.248;2022-10-31T00:11:39;14.32;;;9.90;;
15246;SDS011;7726;48.820;9.248;2022-10-31T00:14:06;17.55;;;11.90;;
15246;SDS011;7726;48.820;9.248;2022-10-31T00:16:33;18.25;;;12.45;;
15246;SDS011;7726;48.820;9.248;2022-10-31T00:19:01;12.45;;;9.48;;
15246;SDS011;7726;48.820;9.248;2022-10-31T00:21:29;16.80;;;7.95;;
15246;SDS011;7726;48.820;9.248;2022-10-31T00:23:58;11.60;;;7.35;;
15246;SDS011;7726;48.820;9.248;2022-10-31T00:26:26;12.70;;;6.83;;
15246;SDS011;7726;48.820;9.248;2022-10-31T00:28:53;13.85;;;7.50;;
15246;SDS011;7726;48.820;9.248;2022-10-31T00:31:20;17.60;;;7.40;;
15246;SDS011;7726;48.820;9.248;2022-10-31T00:33:48;13.60;;;7.53;;
15246;SDS011;7726;48.820;9.248;2022-10-31T00:36:17;14.37;;;7.37;;
15246;SDS011;7726;48.820;9.248;2022-10-31T00:38:44;13.70;;;7.10;;
15246;SDS011;7726;48.820;9.248;2022-10-31T00:41:14;11.15;;;7.07;;
15246;SDS011;7726;48.820;9.248;2022-10-31T00:43:42;15.03;;;7.40;;
15246;SDS011;7726;48.820;9.248;2022-10-31T00:46:09;9.60;;;6.60;;
15246;SDS011;7726;48.820;9.248;2022-10-31T00:48:37;11.35;;;5.97;;
15246;SDS011;7726;48.820;9.248;2022-10-31T00:51:04;11.90;;;6.15;;
15246;SDS011;7726;48.820;9.248;2022-10-31T00:53:31;13.13;;;6.57;;
15246;SDS011;7726;48.820;9.248;2022-10-31T00:55:59;10.90;;;5.97;;
15246;SDS011;7726;48.820;9.248;2022-10-31T00:58:27;10.83;;;6.47;;
15246;SDS011;7726;48.820;9.248;2022-10-31T01:00:54;9.68;;;6.32;;
15246;SDS011;7726;48.820;9.248;2022-10-31T01:03:22;12.05;;;6.30;;
15246;SDS011;7726;48.820;9.248;2022-10-31T01:05:55;7.95;;;5.50;;
15246;SDS011;7726;48.820;9.248;2022-10-31T01:08:23;12.57;;;5.90;;
15246;SDS011;7726;48.820;9.248;2022-10-31T01:10:57;11.33;;;5.93;;
15246;SDS011;7726;48.820;9.248;2022-10-31T01:13:24;12.00;;;5.90;;
15246;SDS011;7726;48.820;9.248;2022-10-31T01:15:54;11.93;;;6.67;;
15246;SDS011;7726;48.820;9.248;2022-10-31T01:18:22;13.80;;;6.87;;
15246;SDS011;7726;48.820;9.248;2022-10-31T01:20:56;10.47;;;6.13;;
15246;SDS011;7726;48.820;9.248;2022-10-31T01:23:23;10.80;;;6.43;;
15246;SDS011;7726;48.820;9.248;2022-10-31T01:25:58;15.90;;;7.50;;
15246;SDS011;7726;48.820;9.248;2022-10-31T01:28:25;12.35;;;6.88;;
15246;SDS011;7726;48.820;9.248;2022-10-31T01:30:52;9.73;;;6.40;;
15246;SDS011;7726;48.820;9.248;2022-10-31T01:33:21;12.23;;;6.50;;
15246;SDS011;7726;48.820;9.248;2022-10-31T01:35:48;9.33;;;6.53;;
15246;SDS011;7726;48.820;9.248;2022-10-31T01:38:15;8.77;;;6.17;;
15246;SDS011;7726;48.820;9.248;2022-10-31T01:40:42;7.93;;;5.93;;
15246;SDS011;7726;48.820;9.248;2022-10-31T01:43:11;12.80;;;6.90;;
15246;SDS011;7726;48.820;9.248;2022-10-31T01:45:39;13.47;;;7.07;;
15246;SDS011;7726;48.820;9.248;2022-10-31T01:48:09;12.27;;;7.10;;
15246;SDS011;7726;48.820;9.248;2022-10-31T01:50:41;13.87;;;6.73;;
15246;SDS011;7726;48.820;9.248;2022-10-31T01:53:10;12.07;;;6.10;;
15246;SDS011;7726;48.820;9.248;2022-10-31T01:55:38;10.30;;;6.60;;
15246;SDS011;7726;48.820;9.248;2022-10-31T01:58:07;10.57;;;6.57;;
15246;SDS011;7726;48.820;9.248;2022-10-31T02:00:35;10.77;;;6.50;;
15246;SDS011;7726;48.820;9.248;2022-10-31T02:03:02;12.67;;;6.73;;
15246;SDS011;7726;48.820;9.248;2022-10-31T02:05:29;12.53;;;6.17;;
15246;SDS011;7726;48.820;9.248;2022-10-31T02:07:59;14.27;;;6.40;;
15246;SDS011;7726;48.820;9.248;2022-10-31T02:10:29;12.67;;;6.80;;
15246;SDS011;7726;48.820;9.248;2022-10-31T02:12:57;11.63;;;6.47;;
15246;SDS011;7726;48.820;9.248;2022-10-31T02:15:25;9.13;;;6.00;;
15246;SDS011;7726;48.820;9.248;2022-10-31T02:17:52;10.80;;;6.33;;
15246;SDS011;7726;48.820;9.248;2022-10-31T02:20:20;10.47;;;5.90;;
15246;SDS011;7726;48.820;9.248;2022-10-31T02:23:14;9.97;;;6.30;;
15246;SDS011;7726;48.820;9.248;2022-10-31T02:25:58;9.70;;;6.17;;
15246;SDS011;7726;48.820;9.248;2022-10-31T02:28:34;13.33;;;6.30;;
15246;SDS011;7726;48.820;9.248;2022-10-31T02:31:14;6.57;;;5.23;;
15246;SDS011;7726;48.820;9.248;2022-10-31T02:33:43;10.40;;;5.37;;
15246;SDS011;7726;48.820;9.248;2022-10-31T02:36:12;8.50;;;5.57;;
15246;SDS011;7726;48.820;9.248;2022-10-31T02:38:43;7.73;;;5.83;;
15246;SDS011;7726;48.820;9.248;2022-10-31T02:41:15;9.10;;;6.13;;
15246;SDS011;7726;48.820;9.248;2022-10-31T02:43:47;7.60;;;5.33;;
15246;SDS011;7726;48.820;9.248;2022-10-31T02:46:18;8.97;;;6.40;;
15246;SDS011;7726;48.820;9.248;2022-10-31T02:48:46;12.17;;;5.63;;
15246;SDS011;7726;48.820;9.248;2022-10-31T02:51:15;12.73;;;6.20;;
15246;SDS011;7726;48.820;9.248;2022-10-31T02:53:43;7.37;;;5.63;;
15246;SDS011;7726;48.820;9.248;2022-10-31T02:56:11;6.23;;;5.50;;
15246;SDS011;7726;48.820;9.248;2022-10-31T02:58:40;9.27;;;6.30;;
15246;SDS011;7726;48.820;9.248;2022-10-31T03:01:22;11.07;;;5.87;;
15246;SDS011;7726;48.820;9.248;2022-10-31T03:03:55;11.10;;;5.73;;
15246;SDS011;7726;48.820;9.248;2022-10-31T03:06:23;11.00;;;6.30;;
15246;SDS011;7726;48.820;9.248;2022-10-31T03:08:54;10.73;;;6.03;;
15246;SDS011;7726;48.820;9.248;2022-10-31T03:11:23;10.87;;;7.00;;
15246;SDS011;7726;48.820;9.248;2022-10-31T03:13:51;8.57;;;6.07;;
15246;SDS011;7726;48.820;9.248;2022-10-31T03:16:26;8.77;;;5.93;;
15246;SDS011;7726;48.820;9.248;2022-10-31T03:18:56;9.27;;;6.93;;
15246;SDS011;7726;48.820;9.248;2022-10-31T03:21:25;7.60;;;5.90;;
15246;SDS011;7726;48.820;9.248;2022-10-31T03:23:57;13.27;;;6.13;;
15246;SDS011;7726;48.820;9.248;2022-10-31T03:26:25;8.80;;;5.50;;
15246;SDS011;7726;48.820;9.248;2022-10-31T03:28:53;11.33;;;6.00;;
15246;SDS011;7726;48.820;9.248;2022-10-31T03:31:22;8.30;;;5.13;;
15246;SDS011;7726;48.820;9.248;2022-10-31T03:33:51;8.13;;;5.40;;
15246;SDS011;7726;48.820;9.248;2022-10-31T03:36:19;10.03;;;5.80;;
15246;SDS011;7726;48.820;9.248;2022-10-31T03:38:47;11.77;;;6.40;;
15246;SDS011;7726;48.820;9.248;2022-10-31T03:41:15;8.90;;;5.90;;
15246;SDS011;7726;48.820;9.248;2022-10-31T03:43:46;9.70;;;6.07;;
15246;SDS011;7726;48.820;9.248;2022-10-31T03:46:15;8.70;;;5.80;;
15246;SDS011;7726;48.820;9.248;2022-10-31T03:48:42;12.17;;;5.50;;
15246;SDS011;7726;48.820;9.248;2022-10-31T03:51:12;10.43;;;5.27;;
15246;SDS011;7726;48.820;9.248;2022-10-31T03:53:43;8.20;;;5.50;;
15246;SDS011;7726;48.820;9.248;2022-10-31T03:56:13;8.87;;;5.77;;
15246;SDS011;7726;48.820;9.248;2022-10-31T03:58:46;12.87;;;5.60;;
15246;SDS011;7726;48.820;9.248;2022-10-31T04:01:15;10.43;;;6.10;;
15246;SDS011;7726;48.820;9.248;2022-10-31T04:03:43;9.33;;;5.67;;
15246;SDS011;7726;48.820;9.248;2022-10-31T04:06:12;10.47;;;5.60;;
15246;SDS011;7726;48.820;9.248;2022-10-31T04:08:41;9.37;;;5.63;;
15246;SDS011;7726;48.820;9.248;2022-10-31T04:11:10;11.13;;;6.30;;
15246;SDS011;7726;48.820;9.248;2022-10-31T04:13:39;10.33;;;5.73;;
15246;SDS011;7726;48.820;9.248;2022-10-31T04:16:07;8.07;;;5.87;;
15246;SDS011;7726;48.820;9.248;2022-10-31T04:18:34;9.37;;;5.20;;
15246;SDS011;7726;48.820;9.248;2022-10-31T04:21:03;12.43;;;6.00;;
15246;SDS011;7726;48.820;9.248;2022-10-31T04:23:32;8.63;;;6.00;;
15246;SDS011;7726;48.820;9.248;2022-10-31T04:25:59;7.97;;;5.80;;
15246;SDS011;7726;48.820;9.248;2022-10-31T04:28:26;13.53;;;6.23;;
15246;SDS011;7726;48.820;9.248;2022-10-31T04:30:53;9.33;;;6.00;;
15246;SDS011;7726;48.820;9.248;2022-10-31T04:33:20;12.17;;;6.00;;
15246;SDS011;7726;48.820;9.248;2022-10-31T04:35:47;14.10;;;5.97;;
15246;SDS011;7726;48.820;9.248;2022-10-31T04:38:14;12.33;;;6.67;;
15246;SDS011;7726;48.820;9.248;2022-10-31T04:40:44;15.60;;;6.50;;
15246;SDS011;7726;48.820;9.248;2022-10-31T04:43:11;14.20;;;5.93;;
15246;SDS011;7726;48.820;9.248;2022-10-31T04:45:38;9.23;;;5.23;;
15246;SDS011;7726;48.820;9.248;2022-10-31T04:48:05;12.10;;;5.53;;
15246;SDS011;7726;48.820;9.248;2022-10-31T04:50:32;7.37;;;5.23;;
15246;SDS011;7726;48.820;9.248;2022-10-31T04:52:59;7.00;;;4.60;;
15246;SDS011;7726;48.820;9.248;2022-10-31T04:55:27;7.57;;;5.17;;
15246;SDS011;7726;48.820;9.248;2022-10-31T04:57:55;10.70;;;5.90;;
15246;SDS011;7726;48.820;9.248;2022-10-31T05:00:22;6.10;;;4.73;;
15246;SDS011;7726;48.820;9.248;2022-10-31T05:02:50;8.30;;;5.20;;
15246;SDS011;7726;48.820;9.248;2022-10-31T05:05:18;8.57;;;5.17;;
15246;SDS011;7726;48.820;9.248;2022-10-31T05:07:46;11.27;;;5.57;;
15246;SDS011;7726;48.820;9.248;2022-10-31T05:10:14;6.00;;;4.97;;
15246;SDS011;7726;48.820;9.248;2022-10-31T05:12:45;8.63;;;5.00;;
15246;SDS011;7726;48.820;9.248;2022-10-31T05:15:14;10.10;;;5.23;;
15246;SDS011;7726;48.820;9.248;2022-10-31T05:17:42;10.80;;;4.97;;
15246;SDS011;7726;48.820;9.248;2022-10-31T05:20:09;7.07;;;5.03;;
15246;SDS011;7726;48.820;9.248;2022-10-31T05:22:36;10.03;;;5.63;;
15246;SDS011;7726;48.820;9.248;2022-10-31T05:25:03;8.10;;;5.27;;
15246;SDS011;7726;48.820;9.248;2022-10-31T05:27:31;8.37;;;4.93;;
15246;SDS011;7726;48.820;9.248;2022-10-31T05:29:58;8.73;;;5.17;;
15246;SDS011;7726;48.820;9.248;2022-10-31T05:32:26;6.63;;;5.03;;
15246;SDS011;7726;48.820;9.248;2022-10-31T05:34:54;9.03;;;5.80;;
15246;SDS011;7726;48.820;9.248;2022-10-31T05:37:21;11.00;;;5.40;;
15246;SDS011;7726;48.820;9.248;2022-10-31T05:39:48;8.87;;;5.23;;
15246;SDS011;7726;48.820;9.248;2022-10-31T05:42:16;12.97;;;5.50;;
15246;SDS011;7726;48.820;9.248;2022-10-31T05:44:43;7.50;;;4.97;;
15246;SDS011;7726;48.820;9.248;2022-10-31T05:47:10;9.33;;;5.90;;
15246;SDS011;7726;48.820;9.248;2022-10-31T05:49:38;10.10;;;5.13;;
15246;SDS011;7726;48.820;9.248;2022-10-31T05:52:05;7.20;;;5.20;;
15246;SDS011;7726;48.820;9.248;2022-10-31T05:54:32;8.23;;;5.07;;
15246;SDS011;7726;48.820;9.248;2022-10-31T05:57:00;8.83;;;4.63;;
15246;SDS011;7726;48.820;9.248;2022-10-31T05:59:27;7.70;;;5.37;;
15246;SDS011;7726;48.820;9.248;2022-10-31T06:01:54;12.07;;;5.77;;
15246;SDS011;7726;48.820;9.248;2022-10-31T06:04:21;7.77;;;4.83;;
15246;SDS011;7726;48.820;9.248;2022-10-31T06:06:50;7.03;;;5.13;;
15246;SDS011;7726;48.820;9.248;2022-10-31T06:09:17;10.43;;;5.13;;
15246;SDS011;7726;48.820;9.248;2022-10-31T06:11:44;8.17;;;5.30;;
15246;SDS011;7726;48.820;9.248;2022-10-31T06:14:11;13.07;;;5.43;;
15246;SDS011;7726;48.820;9.248;2022-10-31T06:16:38;11.30;;;5.67;;
15246;SDS011;7726;48.820;9.248;2022-10-31T06:19:05;8.47;;;5.17;;
15246;SDS011;7726;48.820;9.248;2022-10-31T06:21:32;14.27;;;5.60;;
15246;SDS011;7726;48.820;9.248;2022-10-31T06:24:01;10.47;;;5.53;;
15246;SDS011;7726;48.820;9.248;2022-10-31T06:26:28;12.87;;;5.70;;
15246;SDS011;7726;48.820;9.248;2022-10-31T06:28:55;9.13;;;5.67;;
15246;SDS011;7726;48.820;9.248;2022-10-31T06:31:22;7.53;;;5.00;;
15246;SDS011;7726;48.820;9.248;2022-10-31T06:33:49;7.37;;;5.53;;
15246;SDS011;7726;48.820;9.248;2022-10-31T06:36:16;9.73;;;5.87;;
15246;SDS011;7726;48.820;9.248;2022-10-31T06:38:44;10.60;;;6.07;;
15246;SDS011;7726;48.820;9.248;2022-10-31T06:41:12;12.20;;;5.30;;
15246;SDS011;7726;48.820;9.248;2022-10-31T06:43:39;7.57;;;5.20;;
15246;SDS011;7726;48.820;9.248;2022-10-31T06:46:06;8.03;;;4.97;;
15246;SDS011;7726;48.820;9.248;2022-10-31T06:48:33;9.67;;;5.23;;
15246;SDS011;7726;48.820;9.248;2022-10-31T06:51:01;7.50;;;5.30;;
15246;SDS011;7726;48.820;9.248;2022-10-31T06:53:28;8.10;;;5.20;;
15246;SDS011;7726;48.820;9.248;2022-10-31T06:55:56;8.00;;;5.27;;
15246;SDS011;7726;48.820;9.248;2022-10-31T06:58:24;7.90;;;5.53;;
15246;SDS011;7726;48.820;9.248;2022-10-31T07:00:51;7.83;;;5.20;;
15246;SDS011;7726;48.820;9.248;2022-10-31T07:03:18;7.07;;;5.17;;
15246;SDS011;7726;48.820;9.248;2022-10-31T07:05:46;7.93;;;4.90;;
15246;SDS011;7726;48.820;9.248;2022-10-31T07:08:13;6.70;;;5.20;;
15246;SDS011;7726;48.820;9.248;2022-10-31T07:10:41;11.13;;;5.07;;
15246;SDS011;7726;48.820;9.248;2022-10-31T07:13:09;10.37;;;5.37;;
15246;SDS011;7726;48.820;9.248;2022-10-31T07:15:39;8.67;;;5.47;;
15246;SDS011;7726;48.820;9.248;2022-10-31T07:18:08;9.93;;;5.50;;
15246;SDS011;7726;48.820;9.248;2022-10-31T07:20:35;7.20;;;5.57;;
15246;SDS011;7726;48.820;9.248;2022-10-31T07:23:02;9.87;;;5.43;;
15246;SDS011;7726;48.820;9.248;2022-10-31T07:25:29;7.43;;;4.70;;
15246;SDS011;7726;48.820;9.248;2022-10-31T07:27:57;6.93;;;5.00;;
15246;SDS011;7726;48.820;9.248;2022-10-31T07:30:24;12.40;;;5.17;;
15246;SDS011;7726;48.820;9.248;2022-10-31T07:32:52;9.10;;;5.20;;
15246;SDS011;7726;48.820;9.248;2022-10-31T07:35:20;10.20;;;5.15;;
15246;SDS011;7726;48.820;9.248;2022-10-31T07:37:48;14.32;;;5.22;;
15246;SDS011;7726;48.820;9.248;2022-10-31T07:40:16;9.07;;;5.07;;
15246;SDS011;7726;48.820;9.248;2022-10-31T07:42:44;6.00;;;4.93;;
15246;SDS011;7726;48.820;9.248;2022-10-31T07:45:12;9.27;;;5.33;;
15246;SDS011;7726;48.820;9.248;2022-10-31T07:47:40;10.68;;;5.30;;
15246;SDS011;7726;48.820;9.248;2022-10-31T07:50:09;8.93;;;4.83;;
15246;SDS011;7726;48.820;9.248;2022-10-31T07:52:36;8.57;;;5.10;;
15246;SDS011;7726;48.820;9.248;2022-10-31T07:55:04;6.87;;;5.60;;
15246;SDS011;7726;48.820;9.248;2022-10-31T07:57:32;11.37;;;5.33;;
15246;SDS011;7726;48.820;9.248;2022-10-31T07:59:59;8.17;;;5.30;;
15246;SDS011;7726;48.820;9.248;2022-10-31T08:02:26;8.15;;;5.18;;
15246;SDS011;7726;48.820;9.248;2022-10-31T08:04:53;9.20;;;5.27;;
15246;SDS011;7726;48.820;9.248;2022-10-31T08:07:22;13.95;;;6.13;;
15246;SDS011;7726;48.820;9.248;2022-10-31T08:09:49;11.07;;;5.32;;
15246;SDS011;7726;48.820;9.248;2022-10-31T08:12:16;8.20;;;4.77;;
15246;SDS011;7726;48.820;9.248;2022-10-31T08:14:43;7.80;;;5.20;;
15246;SDS011;7726;48.820;9.248;2022-10-31T08:17:10;10.32;;;5.00;;
15246;SDS011;7726;48.820;9.248;2022-10-31T08:19:38;8.88;;;5.03;;
15246;SDS011;7726;48.820;9.248;2022-10-31T08:22:05;11.83;;;4.77;;
15246;SDS011;7726;48.820;9.248;2022-10-31T08:24:33;6.40;;;5.22;;
15246;SDS011;7726;48.820;9.248;2022-10-31T08:27:00;10.35;;;5.45;;
15246;SDS011;7726;48.820;9.248;2022-10-31T08:29:27;9.30;;;5.45;;
15246;SDS011;7726;48.820;9.248;2022-10-31T08:31:55;10.02;;;4.97;;
15246;SDS011;7726;48.820;9.248;2022-10-31T08:34:24;8.82;;;5.50;;
15246;SDS011;7726;48.820;9.248;2022-10-31T08:36:51;11.93;;;5.65;;
15246;SDS011;7726;48.820;9.248;2022-10-31T08:39:18;9.13;;;5.18;;
15246;SDS011;7726;48.820;9.248;2022-10-31T08:41:47;10.88;;;5.25;;
15246;SDS011;7726;48.820;9.248;2022-10-31T08:44:14;13.77;;;8.23;;
15246;SDS011;7726;48.820;9.248;2022-10-31T08:46:41;9.40;;;6.20;;
15246;SDS011;7726;48.820;9.248;2022-10-31T08:49:08;7.97;;;5.95;;
15246;SDS011;7726;48.820;9.248;2022-10-31T08:51:35;11.65;;;6.47;;
15246;SDS011;7726;48.820;9.248;2022-10-31T08:54:02;8.73;;;6.00;;
15246;SDS011;7726;48.820;9.248;2022-10-31T08:56:30;10.55;;;5.82;;
15246;SDS011;7726;48.820;9.248;2022-10-31T08:58:58;14.30;;;5.95;;
15246;SDS011;7726;48.820;9.248;2022-10-31T09:01:26;7.55;;;5.70;;
15246;SDS011;7726;48.820;9.248;2022-10-31T09:03:53;15.55;;;5.72;;
15246;SDS011;7726;48.820;9.248;2022-10-31T09:06:20;10.07;;;5.18;;
15246;SDS011;7726;48.820;9.248;2022-10-31T09:08:47;8.70;;;5.25;;
15246;SDS011;7726;48.820;9.248;2022-10-31T09:11:14;8.90;;;5.55;;
15246;SDS011;7726;48.820;9.248;2022-10-31T09:13:41;9.80;;;5.60;;
15246;SDS011;7726;48.820;9.248;2022-10-31T09:16:10;8.15;;;5.60;;
15246;SDS011;7726;48.820;9.248;2022-10-31T09:18:37;8.63;;;5.68;;
15246;SDS011;7726;48.820;9.248;2022-10-31T09:21:04;9.32;;;5.13;;
15246;SDS011;7726;48.820;9.248;2022-10-31T09:23:31;9.68;;;5.85;;
15246;SDS011;7726;48.820;9.248;2022-10-31T09:25:59;8.02;;;5.30;;
15246;SDS011;7726;48.820;9.248;2022-10-31T09:28:26;10.20;;;5.43;;
15246;SDS011;7726;48.820;9.248;2022-10-31T09:30:53;12.63;;;6.63;;
15246;SDS011;7726;48.820;9.248;2022-10-31T09:33:22;6.10;;;5.50;;
15246;SDS011;7726;48.820;9.248;2022-10-31T09:35:49;11.43;;;6.85;;
15246;SDS011;7726;48.820;9.248;2022-10-31T09:38:17;11.57;;;6.85;;
15246;SDS011;7726;48.820;9.248;2022-10-31T09:40:46;13.68;;;6.75;;
15246;SDS011;7726;48.820;9.248;2022-10-31T09:43:15;17.50;;;11.05;;
15246;SDS011;7726;48.820;9.248;2022-10-31T09:45:45;14.02;;;10.50;;
15246;SDS011;7726;48.820;9.248;2022-10-31T09:48:21;14.70;;;9.25;;
15246;SDS011;7726;48.820;9.248;2022-10-31T09:50:52;18.35;;;11.02;;
15246;SDS011;7726;48.820;9.248;2022-10-31T09:53:22;14.07;;;9.65;;
15246;SDS011;7726;48.820;9.248;2022-10-31T09:55:50;13.20;;;10.32;;
15246;SDS011;7726;48.820;9.248;2022-10-31T09:58:18;12.15;;;8.30;;
15246;SDS011;7726;48.820;9.248;2022-10-31T10:00:47;10.73;;;6.72;;
15246;SDS011;7726;48.820;9.248;2022-10-31T10:03:17;7.80;;;6.45;;
15246;SDS011;7726;48.820;9.248;2022-10-31T10:05:51;8.85;;;6.32;;
15246;SDS011;7726;48.820;9.248;2022-10-31T10:08:21;9.52;;;5.70;;
15246;SDS011;7726;48.820;9.248;2022-10-31T10:10:51;9.40;;;5.72;;
15246;SDS011;7726;48.820;9.248;2022-10-31T10:13:26;9.18;;;5.75;;
15246;SDS011;7726;48.820;9.248;2022-10-31T10:16:09;12.27;;;7.32;;
15246;SDS011;7726;48.820;9.248;2022-10-31T10:18:42;12.05;;;7.05;;
15246;SDS011;7726;48.820;9.248;2022-10-31T10:21:14;9.50;;;6.15;;
15246;SDS011;7726;48.820;9.248;2022-10-31T10:23:48;12.57;;;10.38;;
15246;SDS011;7726;48.820;9.248;2022-10-31T10:26:19;18.05;;;14.45;;
15246;SDS011;7726;48.820;9.248;2022-10-31T10:28:47;15.75;;;11.65;;
15246;SDS011;7726;48.820;9.248;2022-10-31T10:31:16;11.32;;;7.45;;
15246;SDS011;7726;48.820;9.248;2022-10-31T10:33:44;10.82;;;6.63;;
15246;SDS011;7726;48.820;9.248;2022-10-31T10:36:14;7.68;;;5.40;;
15246;SDS011;7726;48.820;9.248;2022-10-31T10:38:52;8.23;;;5.80;;
15246;SDS011;7726;48.820;9.248;2022-10-31T10:41:23;9.20;;;5.20;;
15246;SDS011;7726;48.820;9.248;2022-10-31T10:43:51;10.15;;;5.70;;
15246;SDS011;7726;48.820;9.248;2022-10-31T10:46:21;10.93;;;5.90;;
15246;SDS011;7726;48.820;9.248;2022-10-31T10:49:12;9.55;;;5.68;;
15246;SDS011;7726;48.820;9.248;2022-10-31T10:51:43;11.85;;;6.20;;
15246;SDS011;7726;48.820;9.248;2022-10-31T10:57:06;9.98;;;5.30;;
15246;SDS011;7726;48.820;9.248;2022-10-31T10:59:38;11.30;;;5.38;;
15246;SDS011;7726;48.820;9.248;2022-10-31T11:02:08;5.95;;;4.50;;
15246;SDS011;7726;48.820;9.248;2022-10-31T11:04:40;9.35;;;4.57;;
15246;SDS011;7726;48.820;9.248;2022-10-31T11:07:08;8.73;;;4.45;;
15246;SDS011;7726;48.820;9.248;2022-10-31T11:09:36;7.47;;;4.63;;
15246;SDS011;7726;48.820;9.248;2022-10-31T11:12:07;9.85;;;4.93;;
15246;SDS011;7726;48.820;9.248;2022-10-31T11:14:36;10.10;;;4.88;;
15246;SDS011;7726;48.820;9.248;2022-10-31T11:17:08;9.10;;;5.25;;
15246;SDS011;7726;48.820;9.248;2022-10-31T11:19:36;7.47;;;5.05;;
15246;SDS011;7726;48.820;9.248;2022-10-31T11:22:06;8.38;;;5.28;;
15246;SDS011;7726;48.820;9.248;2022-10-31T11:24:37;10.65;;;4.97;;
15246;SDS011;7726;48.820;9.248;2022-10-31T11:27:11;10.10;;;5.25;;
15246;SDS011;7726;48.820;9.248;2022-10-31T11:29:39;8.20;;;4.80;;
15246;SDS011;7726;48.820;9.248;2022-10-31T11:32:08;9.73;;;6.28;;
15246;SDS011;7726;48.820;9.248;2022-10-31T11:34:45;11.32;;;5.35;;
15246;SDS011;7726;48.820;9.248;2022-10-31T11:37:15;10.57;;;6.07;;
15246;SDS011;7726;48.820;9.248;2022-10-31T11:39:43;8.27;;;5.03;;
15246;SDS011;7726;48.820;9.248;2022-10-31T11:42:15;8.10;;;5.00;;
15246;SDS011;7726;48.820;9.248;2022-10-31T11:44:42;9.05;;;4.78;;
15246;SDS011;7726;48.820;9.248;2022-10-31T11:47:11;9.55;;;5.10;;
15246;SDS011;7726;48.820;9.248;2022-10-31T11:49:41;7.00;;;4.97;;
15246;SDS011;7726;48.820;9.248;2022-10-31T11:52:12;9.20;;;4.88;;
15246;SDS011;7726;48.820;9.248;2022-10-31T11:54:42;10.18;;;4.97;;
15246;SDS011;7726;48.820;9.248;2022-10-31T11:57:23;7.85;;;4.53;;
15246;SDS011;7726;48.820;9.248;2022-10-31T11:59:50;8.45;;;5.10;;
15246;SDS011;7726;48.820;9.248;2022-10-31T12:02:18;12.30;;;4.90;;
15246;SDS011;7726;48.820;9.248;2022-10-31T12:04:46;10.00;;;5.00;;
15246;SDS011;7726;48.820;9.248;2022-10-31T12:07:15;8.00;;;4.80;;
15246;SDS011;7726;48.820;9.248;2022-10-31T12:09:42;10.52;;;4.80;;
15246;SDS011;7726;48.820;9.248;2022-10-31T12:12:11;9.63;;;4.65;;
15246;SDS011;7726;48.820;9.248;2022-10-31T12:14:45;6.78;;;4.68;;
15246;SDS011;7726;48.820;9.248;2022-10-31T12:17:16;8.93;;;4.80;;
15246;SDS011;7726;48.820;9.248;2022-10-31T12:19:50;6.78;;;4.68;;
15246;SDS011;7726;48.820;9.248;2022-10-31T12:22:25;10.02;;;4.75;;
15246;SDS011;7726;48.820;9.248;2022-10-31T12:25:05;10.15;;;4.35;;
15246;SDS011;7726;48.820;9.248;2022-10-31T12:27:40;6.95;;;4.60;;
15246;SDS011;7726;48.820;9.248;2022-10-31T12:30:15;8.38;;;4.60;;
15246;SDS011;7726;48.820;9.248;2022-10-31T12:32:50;4.57;;;3.75;;
15246;SDS011;7726;48.820;9.248;2022-10-31T12:35:30;6.93;;;4.22;;
15246;SDS011;7726;48.820;9.248;2022-10-31T12:38:06;6.38;;;4.93;;
15246;SDS011;7726;48.820;9.248;2022-10-31T12:40:42;11.27;;;4.53;;
15246;SDS011;7726;48.820;9.248;2022-10-31T12:43:15;11.18;;;5.00;;
15246;SDS011;7726;48.820;9.248;2022-10-31T12:45:50;11.30;;;4.90;;
15246;SDS011;7726;48.820;9.248;2022-10-31T12:48:24;13.27;;;5.13;;
15246;SDS011;7726;48.820;9.248;2022-10-31T12:50:56;7.72;;;4.82;;
15246;SDS011;7726;48.820;9.248;2022-10-31T12:53:30;10.02;;;4.55;;
15246;SDS011;7726;48.820;9.248;2022-10-31T12:56:07;9.80;;;4.22;;
15246;SDS011;7726;48.820;9.248;2022-10-31T12:58:38;10.98;;;4.63;;
15246;SDS011;7726;48.820;9.248;2022-10-31T13:01:09;6.57;;;4.03;;
15246;SDS011;7726;48.820;9.248;2022-10-31T13:03:40;10.70;;;5.03;;
15246;SDS011;7726;48.820;9.248;2022-10-31T13:06:09;5.72;;;4.20;;
15246;SDS011;7726;48.820;9.248;2022-10-31T13:08:40;7.35;;;4.40;;
15246;SDS011;7726;48.820;9.248;2022-10-31T13:11:10;6.15;;;4.15;;
15246;SDS011;7726;48.820;9.248;2022-10-31T13:13:38;10.18;;;4.20;;
15246;SDS011;7726;48.820;9.248;2022-10-31T13:16:09;6.20;;;4.05;;
15246;SDS011;7726;48.820;9.248;2022-10-31T13:18:39;11.30;;;5.13;;
15246;SDS011;7726;48.820;9.248;2022-10-31T13:21:08;7.75;;;5.07;;
15246;SDS011;7726;48.820;9.248;2022-10-31T13:23:36;7.50;;;4.88;;
15246;SDS011;7726;48.820;9.248;2022-10-31T13:26:06;12.55;;;5.28;;
15246;SDS011;7726;48.820;9.248;2022-10-31T13:28:36;12.45;;;4.90;;
15246;SDS011;7726;48.820;9.248;2022-10-31T13:31:04;9.82;;;5.22;;
15246;SDS011;7726;48.820;9.248;2022-10-31T13:33:34;7.53;;;5.00;;
15246;SDS011;7726;48.820;9.248;2022-10-31T13:36:06;7.97;;;4.80;;
15246;SDS011;7726;48.820;9.248;2022-10-31T13:38:36;9.25;;;4.45;;
15246;SDS011;7726;48.820;9.248;2022-10-31T13:41:09;9.55;;;5.05;;
15246;SDS011;7726;48.820;9.248;2022-10-31T13:43:43;7.75;;;4.90;;
15246;SDS011;7726;48.820;9.248;2022-10-31T13:46:23;9.13;;;4.68;;
15246;SDS011;7726;48.820;9.248;2022-10-31T13:48:51;8.73;;;4.80;;
15246;SDS011;7726;48.820;9.248;2022-10-31T13:51:24;7.85;;;5.15;;
15246;SDS011;7726;48.820;9.248;2022-10-31T13:53:57;8.43;;;4.55;;
15246;SDS011;7726;48.820;9.248;2022-10-31T13:56:25;7.82;;;5.30;;
15246;SDS011;7726;48.820;9.248;2022-10-31T13:59:00;9.25;;;4.80;;
15246;SDS011;7726;48.820;9.248;2022-10-31T14:01:27;7.10;;;4.55;;
15246;SDS011;7726;48.820;9.248;2022-10-31T14:03:58;16.20;;;5.30;;
15246;SDS011;7726;48.820;9.248;2022-10-31T14:06:34;10.82;;;5.63;;
15246;SDS011;7726;48.820;9.248;2022-10-31T14:09:02;10.85;;;5.50;;
15246;SDS011;7726;48.820;9.248;2022-10-31T14:11:29;8.23;;;4.28;;
15246;SDS011;7726;48.820;9.248;2022-10-31T14:13:57;10.82;;;5.32;;
15246;SDS011;7726;48.820;9.248;2022-10-31T14:16:25;9.65;;;5.15;;
15246;SDS011;7726;48.820;9.248;2022-10-31T14:18:58;8.57;;;4.60;;
15246;SDS011;7726;48.820;9.248;2022-10-31T14:21:27;8.07;;;4.72;;
15246;SDS011;7726;48.820;9.248;2022-10-31T14:23:55;11.88;;;5.47;;
15246;SDS011;7726;48.820;9.248;2022-10-31T14:26:33;10.70;;;5.03;;
15246;SDS011;7726;48.820;9.248;2022-10-31T14:29:01;8.90;;;4.65;;
15246;SDS011;7726;48.820;9.248;2022-10-31T14:31:34;8.85;;;5.38;;
15246;SDS011;7726;48.820;9.248;2022-10-31T14:34:05;7.32;;;4.80;;
15246;SDS011;7726;48.820;9.248;2022-10-31T14:36:36;10.00;;;4.68;;
15246;SDS011;7726;48.820;9.248;2022-10-31T14:39:05;10.10;;;5.00;;
15246;SDS011;7726;48.820;9.248;2022-10-31T14:41:39;15.90;;;5.75;;
15246;SDS011;7726;48.820;9.248;2022-10-31T14:44:16;9.10;;;5.50;;
15246;SDS011;7726;48.820;9.248;2022-10-31T14:46:48;9.15;;;4.53;;
15246;SDS011;7726;48.820;9.248;2022-10-31T14:49:23;8.93;;;5.40;;
15246;SDS011;7726;48.820;9.248;2022-10-31T14:51:53;9.35;;;4.63;;
15246;SDS011;7726;48.820;9.248;2022-10-31T14:54:25;10.55;;;5.35;;
15246;SDS011;7726;48.820;9.248;2022-10-31T14:57:02;8.60;;;5.30;;
15246;SDS011;7726;48.820;9.248;2022-10-31T14:59:31;8.82;;;5.03;;
15246;SDS011;7726;48.820;9.248;2022-10-31T15:02:01;9.43;;;5.15;;
15246;SDS011;7726;48.820;9.248;2022-10-31T15:04:35;7.38;;;5.32;;
15246;SDS011;7726;48.820;9.248;2022-10-31T15:07:04;15.18;;;5.78;;
15246;SDS011;7726;48.820;9.248;2022-10-31T15:09:33;9.40;;;5.80;;
15246;SDS011;7726;48.820;9.248;2022-10-31T15:12:00;8.68;;;5.72;;